sensor_id;sensor_type;location;lat;lon;timestamp;P1;durP1;ratioP1;P2;durP2;ratioP2
63499;SDS011;49654;51.142;14.924;2023-02-16T00:00:50;73.10;;;33.03;;
63499;SDS011;49654;51.142;14.924;2023-02-16T00:03:18;76.73;;;32.07;;
63499;SDS011;49654;51.142;14.924;2023-02-16T00:05:47;73.47;;;33.50;;
63499;SDS011;49654;51.142;14.924;2023-02-16T00:08:16;80.13;;;33.83;;
63499;SDS011;49654;51.142;14.924;2023-02-16T00:10:43;78.33;;;33.33;;
63499;SDS011;49654;51.142;14.924;2023-02-16T00:13:31;79.37;;;34.23;;
63499;SDS011;49654;51.142;14.924;2023-02-16T00:16:10;79.40;;;33.97;;
63499;SDS011;49654;51.142;14.924;2023-02-16T00:18:42;79.73;;;32.63;;
63499;SDS011;49654;51.142;14.924;2023-02-16T00:21:09;72.27;;;33.03;;
63499;SDS011;49654;51.142;14.924;2023-02-16T00:23:38;71.73;;;32.50;;
63499;SDS011;49654;51.142;14.924;2023-02-16T00:26:08;79.93;;;33.70;;
63499;SDS011;49654;51.142;14.924;2023-02-16T00:28:40;75.77;;;32.50;;
63499;SDS011;49654;51.142;14.924;2023-02-16T00:31:09;78.50;;;33.80;;
63499;SDS011;49654;51.142;14.924;2023-02-16T00:33:42;81.53;;;35.67;;
63499;SDS011;49654;51.142;14.924;2023-02-16T00:36:09;74.67;;;30.33;;
63499;SDS011;49654;51.142;14.924;2023-02-16T00:38:37;73.23;;;32.43;;
63499;SDS011;49654;51.142;14.924;2023-02-16T00:41:04;83.63;;;34.33;;
63499;SDS011;49654;51.142;14.924;2023-02-16T00:43:51;77.90;;;34.30;;
63499;SDS011;49654;51.142;14.924;2023-02-16T00:46:19;73.00;;;33.83;;
63499;SDS011;49654;51.142;14.924;2023-02-16T00:48:46;77.37;;;33.00;;
63499;SDS011;49654;51.142;14.924;2023-02-16T00:51:13;77.90;;;33.57;;
63499;SDS011;49654;51.142;14.924;2023-02-16T00:53:42;76.50;;;33.40;;
63499;SDS011;49654;51.142;14.924;2023-02-16T00:56:09;71.07;;;32.17;;
63499;SDS011;49654;51.142;14.924;2023-02-16T00:58:40;75.90;;;32.47;;
63499;SDS011;49654;51.142;14.924;2023-02-16T01:01:07;86.40;;;35.37;;
63499;SDS011;49654;51.142;14.924;2023-02-16T01:03:37;76.67;;;32.27;;
63499;SDS011;49654;51.142;14.924;2023-02-16T01:06:04;75.93;;;32.23;;
63499;SDS011;49654;51.142;14.924;2023-02-16T01:08:50;73.50;;;32.50;;
63499;SDS011;49654;51.142;14.924;2023-02-16T01:11:36;75.53;;;32.13;;
63499;SDS011;49654;51.142;14.924;2023-02-16T01:14:04;78.20;;;32.83;;
63499;SDS011;49654;51.142;14.924;2023-02-16T01:16:32;70.37;;;31.37;;
63499;SDS011;49654;51.142;14.924;2023-02-16T01:19:02;73.87;;;31.70;;
63499;SDS011;49654;51.142;14.924;2023-02-16T01:21:29;75.33;;;32.23;;
63499;SDS011;49654;51.142;14.924;2023-02-16T01:23:58;76.90;;;33.17;;
63499;SDS011;49654;51.142;14.924;2023-02-16T01:26:25;70.70;;;32.80;;
63499;SDS011;49654;51.142;14.924;2023-02-16T01:28:52;74.50;;;32.10;;
63499;SDS011;49654;51.142;14.924;2023-02-16T01:31:19;68.70;;;32.70;;
63499;SDS011;49654;51.142;14.924;2023-02-16T01:33:46;70.50;;;32.27;;
63499;SDS011;49654;51.142;14.924;2023-02-16T01:36:17;66.13;;;30.40;;
63499;SDS011;49654;51.142;14.924;2023-02-16T01:38:49;69.90;;;32.13;;
63499;SDS011;49654;51.142;14.924;2023-02-16T01:41:19;67.80;;;31.50;;
63499;SDS011;49654;51.142;14.924;2023-02-16T01:43:55;75.40;;;34.13;;
63499;SDS011;49654;51.142;14.924;2023-02-16T01:46:28;71.17;;;32.67;;
63499;SDS011;49654;51.142;14.924;2023-02-16T01:49:02;68.47;;;31.63;;
63499;SDS011;49654;51.142;14.924;2023-02-16T01:51:32;69.87;;;31.97;;
63499;SDS011;49654;51.142;14.924;2023-02-16T01:54:05;71.43;;;32.20;;
63499;SDS011;49654;51.142;14.924;2023-02-16T01:56:40;70.77;;;32.20;;
63499;SDS011;49654;51.142;14.924;2023-02-16T01:59:13;69.03;;;31.90;;
63499;SDS011;49654;51.142;14.924;2023-02-16T02:01:51;71.53;;;33.07;;
63499;SDS011;49654;51.142;14.924;2023-02-16T02:04:21;71.70;;;31.57;;
63499;SDS011;49654;51.142;14.924;2023-02-16T02:07:09;72.73;;;32.77;;
63499;SDS011;49654;51.142;14.924;2023-02-16T02:09:46;71.97;;;32.37;;
63499;SDS011;49654;51.142;14.924;2023-02-16T02:12:25;74.13;;;31.67;;
63499;SDS011;49654;51.142;14.924;2023-02-16T02:14:57;69.43;;;30.10;;
63499;SDS011;49654;51.142;14.924;2023-02-16T02:17:24;69.63;;;29.23;;
63499;SDS011;49654;51.142;14.924;2023-02-16T02:19:54;68.73;;;32.13;;
63499;SDS011;49654;51.142;14.924;2023-02-16T02:26:08;70.33;;;30.50;;
63499;SDS011;49654;51.142;14.924;2023-02-16T02:28:52;69.67;;;31.43;;
63499;SDS011;49654;51.142;14.924;2023-02-16T02:31:30;73.23;;;32.53;;
63499;SDS011;49654;51.142;14.924;2023-02-16T02:34:11;69.53;;;31.40;;
63499;SDS011;49654;51.142;14.924;2023-02-16T02:36:48;73.80;;;32.13;;
63499;SDS011;49654;51.142;14.924;2023-02-16T02:39:26;78.70;;;34.17;;
63499;SDS011;49654;51.142;14.924;2023-02-16T02:42:02;79.13;;;33.40;;
63499;SDS011;49654;51.142;14.924;2023-02-16T02:44:38;81.00;;;32.27;;
63499;SDS011;49654;51.142;14.924;2023-02-16T02:47:10;77.67;;;32.97;;
63499;SDS011;49654;51.142;14.924;2023-02-16T02:49:37;81.43;;;32.13;;
63499;SDS011;49654;51.142;14.924;2023-02-16T02:52:06;79.50;;;34.60;;
63499;SDS011;49654;51.142;14.924;2023-02-16T02:54:35;77.30;;;32.17;;
63499;SDS011;49654;51.142;14.924;2023-02-16T02:57:24;78.17;;;31.80;;
63499;SDS011;49654;51.142;14.924;2023-02-16T03:00:17;79.60;;;32.47;;
63499;SDS011;49654;51.142;14.924;2023-02-16T03:03:05;84.87;;;33.50;;
63499;SDS011;49654;51.142;14.924;2023-02-16T03:05:36;75.27;;;32.20;;
63499;SDS011;49654;51.142;14.924;2023-02-16T03:08:07;79.40;;;32.93;;
63499;SDS011;49654;51.142;14.924;2023-02-16T03:10:40;80.70;;;32.97;;
63499;SDS011;49654;51.142;14.924;2023-02-16T03:13:29;79.63;;;32.17;;
63499;SDS011;49654;51.142;14.924;2023-02-16T03:16:02;77.23;;;32.47;;
63499;SDS011;49654;51.142;14.924;2023-02-16T03:18:34;81.43;;;32.83;;
63499;SDS011;49654;51.142;14.924;2023-02-16T03:21:20;78.97;;;32.37;;
63499;SDS011;49654;51.142;14.924;2023-02-16T03:24:06;76.10;;;31.80;;
63499;SDS011;49654;51.142;14.924;2023-02-16T03:26:54;75.80;;;31.77;;
63499;SDS011;49654;51.142;14.924;2023-02-16T03:29:41;70.20;;;30.53;;
63499;SDS011;49654;51.142;14.924;2023-02-16T03:32:11;77.07;;;33.50;;
63499;SDS011;49654;51.142;14.924;2023-02-16T03:34:38;71.80;;;30.57;;
63499;SDS011;49654;51.142;14.924;2023-02-16T03:37:06;79.23;;;32.13;;
63499;SDS011;49654;51.142;14.924;2023-02-16T03:39:33;75.13;;;32.67;;
63499;SDS011;49654;51.142;14.924;2023-02-16T03:42:21;66.77;;;31.03;;
63499;SDS011;49654;51.142;14.924;2023-02-16T03:44:48;69.90;;;31.07;;
63499;SDS011;49654;51.142;14.924;2023-02-16T03:47:17;70.37;;;31.87;;
63499;SDS011;49654;51.142;14.924;2023-02-16T03:49:44;75.23;;;32.80;;
63499;SDS011;49654;51.142;14.924;2023-02-16T03:52:12;64.57;;;29.30;;
63499;SDS011;49654;51.142;14.924;2023-02-16T03:54:38;70.57;;;32.00;;
63499;SDS011;49654;51.142;14.924;2023-02-16T03:57:05;72.63;;;31.00;;
63499;SDS011;49654;51.142;14.924;2023-02-16T03:59:32;77.43;;;32.27;;
63499;SDS011;49654;51.142;14.924;2023-02-16T04:01:59;73.13;;;32.60;;
63499;SDS011;49654;51.142;14.924;2023-02-16T04:04:27;75.07;;;33.67;;
63499;SDS011;49654;51.142;14.924;2023-02-16T04:06:54;73.27;;;33.43;;
63499;SDS011;49654;51.142;14.924;2023-02-16T04:09:21;70.37;;;31.80;;
63499;SDS011;49654;51.142;14.924;2023-02-16T04:11:48;72.33;;;32.37;;
63499;SDS011;49654;51.142;14.924;2023-02-16T04:14:32;82.40;;;33.83;;
63499;SDS011;49654;51.142;14.924;2023-02-16T04:16:59;78.27;;;33.03;;
63499;SDS011;49654;51.142;14.924;2023-02-16T04:19:29;72.70;;;32.03;;
63499;SDS011;49654;51.142;14.924;2023-02-16T04:21:56;76.57;;;34.23;;
63499;SDS011;49654;51.142;14.924;2023-02-16T04:24:23;75.70;;;33.10;;
63499;SDS011;49654;51.142;14.924;2023-02-16T04:26:49;84.37;;;35.03;;
63499;SDS011;49654;51.142;14.924;2023-02-16T04:29:16;78.63;;;34.03;;
63499;SDS011;49654;51.142;14.924;2023-02-16T04:31:43;79.03;;;33.20;;
63499;SDS011;49654;51.142;14.924;2023-02-16T04:34:10;85.67;;;36.50;;
63499;SDS011;49654;51.142;14.924;2023-02-16T04:36:38;84.13;;;36.70;;
63499;SDS011;49654;51.142;14.924;2023-02-16T04:39:05;76.63;;;34.63;;
63499;SDS011;49654;51.142;14.924;2023-02-16T04:41:32;83.07;;;36.13;;
63499;SDS011;49654;51.142;14.924;2023-02-16T04:43:59;84.17;;;36.17;;
63499;SDS011;49654;51.142;14.924;2023-02-16T04:46:26;83.83;;;36.97;;
63499;SDS011;49654;51.142;14.924;2023-02-16T04:48:53;84.17;;;36.73;;
63499;SDS011;49654;51.142;14.924;2023-02-16T04:51:20;85.93;;;38.07;;
63499;SDS011;49654;51.142;14.924;2023-02-16T04:53:48;81.57;;;36.80;;
63499;SDS011;49654;51.142;14.924;2023-02-16T04:56:15;86.77;;;37.13;;
63499;SDS011;49654;51.142;14.924;2023-02-16T04:58:42;87.60;;;37.00;;
63499;SDS011;49654;51.142;14.924;2023-02-16T05:01:16;84.23;;;36.80;;
63499;SDS011;49654;51.142;14.924;2023-02-16T05:03:44;83.23;;;36.80;;
63499;SDS011;49654;51.142;14.924;2023-02-16T05:06:11;84.60;;;36.73;;
63499;SDS011;49654;51.142;14.924;2023-02-16T05:08:38;82.53;;;35.43;;
63499;SDS011;49654;51.142;14.924;2023-02-16T05:11:06;79.37;;;35.50;;
63499;SDS011;49654;51.142;14.924;2023-02-16T05:13:51;84.70;;;34.97;;
63499;SDS011;49654;51.142;14.924;2023-02-16T05:16:36;78.90;;;34.87;;
63499;SDS011;49654;51.142;14.924;2023-02-16T05:19:02;79.73;;;35.80;;
63499;SDS011;49654;51.142;14.924;2023-02-16T05:21:29;81.13;;;36.20;;
63499;SDS011;49654;51.142;14.924;2023-02-16T05:23:56;77.97;;;35.27;;
63499;SDS011;49654;51.142;14.924;2023-02-16T05:26:26;80.40;;;34.53;;
63499;SDS011;49654;51.142;14.924;2023-02-16T05:28:53;78.03;;;35.87;;
63499;SDS011;49654;51.142;14.924;2023-02-16T05:31:20;87.67;;;38.13;;
63499;SDS011;49654;51.142;14.924;2023-02-16T05:33:48;82.17;;;37.03;;
63499;SDS011;49654;51.142;14.924;2023-02-16T05:36:15;87.37;;;37.53;;
63499;SDS011;49654;51.142;14.924;2023-02-16T05:38:42;86.50;;;37.23;;
63499;SDS011;49654;51.142;14.924;2023-02-16T05:41:09;85.60;;;37.20;;
63499;SDS011;49654;51.142;14.924;2023-02-16T05:43:38;87.03;;;38.33;;
63499;SDS011;49654;51.142;14.924;2023-02-16T05:46:06;80.53;;;35.57;;
63499;SDS011;49654;51.142;14.924;2023-02-16T05:48:33;84.10;;;36.57;;
63499;SDS011;49654;51.142;14.924;2023-02-16T05:51:00;87.63;;;36.33;;
63499;SDS011;49654;51.142;14.924;2023-02-16T05:53:27;90.17;;;40.33;;
63499;SDS011;49654;51.142;14.924;2023-02-16T05:55:54;86.30;;;36.60;;
63499;SDS011;49654;51.142;14.924;2023-02-16T05:58:21;86.80;;;38.33;;
63499;SDS011;49654;51.142;14.924;2023-02-16T06:00:49;87.03;;;37.73;;
63499;SDS011;49654;51.142;14.924;2023-02-16T06:03:16;86.00;;;38.53;;
63499;SDS011;49654;51.142;14.924;2023-02-16T06:05:43;80.97;;;38.07;;
63499;SDS011;49654;51.142;14.924;2023-02-16T06:08:10;87.93;;;38.37;;
63499;SDS011;49654;51.142;14.924;2023-02-16T06:10:37;89.93;;;36.77;;
63499;SDS011;49654;51.142;14.924;2023-02-16T06:13:04;90.50;;;38.07;;
63499;SDS011;49654;51.142;14.924;2023-02-16T06:15:31;88.00;;;38.67;;
63499;SDS011;49654;51.142;14.924;2023-02-16T06:17:59;82.97;;;37.03;;
63499;SDS011;49654;51.142;14.924;2023-02-16T06:20:27;85.27;;;38.23;;
63499;SDS011;49654;51.142;14.924;2023-02-16T06:22:54;91.67;;;39.57;;
63499;SDS011;49654;51.142;14.924;2023-02-16T06:25:21;84.70;;;37.03;;
63499;SDS011;49654;51.142;14.924;2023-02-16T06:27:48;85.03;;;36.37;;
63499;SDS011;49654;51.142;14.924;2023-02-16T06:30:17;88.53;;;37.47;;
63499;SDS011;49654;51.142;14.924;2023-02-16T06:32:44;91.53;;;40.17;;
63499;SDS011;49654;51.142;14.924;2023-02-16T06:35:12;82.83;;;36.80;;
63499;SDS011;49654;51.142;14.924;2023-02-16T06:37:39;91.13;;;38.97;;
63499;SDS011;49654;51.142;14.924;2023-02-16T06:40:06;89.93;;;40.23;;
63499;SDS011;49654;51.142;14.924;2023-02-16T06:42:34;99.67;;;42.03;;
63499;SDS011;49654;51.142;14.924;2023-02-16T06:45:02;98.43;;;40.40;;
63499;SDS011;49654;51.142;14.924;2023-02-16T06:47:29;96.23;;;40.40;;
63499;SDS011;49654;51.142;14.924;2023-02-16T06:49:56;88.57;;;39.33;;
63499;SDS011;49654;51.142;14.924;2023-02-16T06:52:24;95.07;;;40.00;;
63499;SDS011;49654;51.142;14.924;2023-02-16T06:54:51;87.63;;;37.67;;
63499;SDS011;49654;51.142;14.924;2023-02-16T06:57:18;92.77;;;39.33;;
63499;SDS011;49654;51.142;14.924;2023-02-16T06:59:45;88.17;;;38.20;;
63499;SDS011;49654;51.142;14.924;2023-02-16T07:02:12;84.50;;;38.37;;
63499;SDS011;49654;51.142;14.924;2023-02-16T07:04:38;94.73;;;40.53;;
63499;SDS011;49654;51.142;14.924;2023-02-16T07:07:05;88.23;;;38.40;;
63499;SDS011;49654;51.142;14.924;2023-02-16T07:09:35;88.50;;;39.87;;
63499;SDS011;49654;51.142;14.924;2023-02-16T07:12:02;89.63;;;38.80;;
63499;SDS011;49654;51.142;14.924;2023-02-16T07:14:31;88.93;;;40.87;;
63499;SDS011;49654;51.142;14.924;2023-02-16T07:16:58;90.87;;;39.80;;
63499;SDS011;49654;51.142;14.924;2023-02-16T07:19:28;89.50;;;40.23;;
63499;SDS011;49654;51.142;14.924;2023-02-16T07:21:57;91.30;;;40.00;;
63499;SDS011;49654;51.142;14.924;2023-02-16T07:24:24;86.73;;;38.47;;
63499;SDS011;49654;51.142;14.924;2023-02-16T07:26:53;81.97;;;36.47;;
63499;SDS011;49654;51.142;14.924;2023-02-16T07:29:21;92.73;;;40.27;;
63499;SDS011;49654;51.142;14.924;2023-02-16T07:31:48;87.27;;;38.17;;
63499;SDS011;49654;51.142;14.924;2023-02-16T07:34:15;86.77;;;38.33;;
63499;SDS011;49654;51.142;14.924;2023-02-16T07:36:42;82.33;;;37.97;;
63499;SDS011;49654;51.142;14.924;2023-02-16T07:39:10;86.33;;;40.60;;
63499;SDS011;49654;51.142;14.924;2023-02-16T07:41:37;86.17;;;38.57;;
63499;SDS011;49654;51.142;14.924;2023-02-16T07:44:05;88.60;;;40.63;;
63499;SDS011;49654;51.142;14.924;2023-02-16T07:46:32;97.27;;;39.80;;
63499;SDS011;49654;51.142;14.924;2023-02-16T07:48:59;85.87;;;38.80;;
63499;SDS011;49654;51.142;14.924;2023-02-16T07:51:27;85.23;;;37.73;;
63499;SDS011;49654;51.142;14.924;2023-02-16T07:53:56;83.07;;;38.67;;
63499;SDS011;49654;51.142;14.924;2023-02-16T07:56:24;78.87;;;36.63;;
63499;SDS011;49654;51.142;14.924;2023-02-16T07:58:52;76.23;;;35.27;;
63499;SDS011;49654;51.142;14.924;2023-02-16T08:01:21;75.50;;;36.93;;
63499;SDS011;49654;51.142;14.924;2023-02-16T08:03:49;80.20;;;37.80;;
63499;SDS011;49654;51.142;14.924;2023-02-16T08:06:17;77.83;;;36.20;;
63499;SDS011;49654;51.142;14.924;2023-02-16T08:08:44;82.43;;;38.23;;
63499;SDS011;49654;51.142;14.924;2023-02-16T08:11:12;81.27;;;38.77;;
63499;SDS011;49654;51.142;14.924;2023-02-16T08:13:40;77.13;;;37.87;;
63499;SDS011;49654;51.142;14.924;2023-02-16T08:16:08;80.67;;;37.60;;
63499;SDS011;49654;51.142;14.924;2023-02-16T08:18:36;76.83;;;37.40;;
63499;SDS011;49654;51.142;14.924;2023-02-16T08:21:07;81.47;;;38.40;;
63499;SDS011;49654;51.142;14.924;2023-02-16T08:23:38;80.20;;;38.83;;
63499;SDS011;49654;51.142;14.924;2023-02-16T08:26:08;79.23;;;37.30;;
63499;SDS011;49654;51.142;14.924;2023-02-16T08:28:36;79.03;;;37.57;;
63499;SDS011;49654;51.142;14.924;2023-02-16T08:31:04;87.07;;;40.00;;
63499;SDS011;49654;51.142;14.924;2023-02-16T08:33:32;85.60;;;40.53;;
63499;SDS011;49654;51.142;14.924;2023-02-16T08:36:02;82.83;;;39.33;;
63499;SDS011;49654;51.142;14.924;2023-02-16T08:38:33;82.97;;;39.07;;
63499;SDS011;49654;51.142;14.924;2023-02-16T08:41:00;84.77;;;40.83;;
63499;SDS011;49654;51.142;14.924;2023-02-16T08:43:27;81.47;;;39.30;;
63499;SDS011;49654;51.142;14.924;2023-02-16T08:45:54;78.87;;;38.13;;
63499;SDS011;49654;51.142;14.924;2023-02-16T08:48:21;81.20;;;38.90;;
63499;SDS011;49654;51.142;14.924;2023-02-16T08:50:49;84.13;;;39.57;;
63499;SDS011;49654;51.142;14.924;2023-02-16T08:53:21;80.20;;;40.00;;
63499;SDS011;49654;51.142;14.924;2023-02-16T08:55:52;74.20;;;36.63;;
63499;SDS011;49654;51.142;14.924;2023-02-16T08:58:20;82.50;;;37.20;;
63499;SDS011;49654;51.142;14.924;2023-02-16T09:00:47;83.00;;;40.50;;
63499;SDS011;49654;51.142;14.924;2023-02-16T09:03:14;82.97;;;40.80;;
63499;SDS011;49654;51.142;14.924;2023-02-16T09:05:43;86.63;;;41.77;;
63499;SDS011;49654;51.142;14.924;2023-02-16T09:08:10;86.00;;;40.43;;
63499;SDS011;49654;51.142;14.924;2023-02-16T09:10:40;86.27;;;43.07;;
63499;SDS011;49654;51.142;14.924;2023-02-16T09:13:07;81.17;;;38.50;;
63499;SDS011;49654;51.142;14.924;2023-02-16T09:15:35;84.60;;;38.87;;
63499;SDS011;49654;51.142;14.924;2023-02-16T09:18:02;82.13;;;39.77;;
63499;SDS011;49654;51.142;14.924;2023-02-16T09:20:29;76.80;;;37.03;;
63499;SDS011;49654;51.142;14.924;2023-02-16T09:22:56;79.03;;;37.97;;
63499;SDS011;49654;51.142;14.924;2023-02-16T09:25:24;78.63;;;37.63;;
63499;SDS011;49654;51.142;14.924;2023-02-16T09:27:52;79.47;;;37.97;;
63499;SDS011;49654;51.142;14.924;2023-02-16T09:30:19;78.90;;;38.30;;
63499;SDS011;49654;51.142;14.924;2023-02-16T09:32:47;73.23;;;36.20;;
63499;SDS011;49654;51.142;14.924;2023-02-16T09:35:15;75.30;;;36.00;;
63499;SDS011;49654;51.142;14.924;2023-02-16T09:37:42;73.03;;;36.47;;
63499;SDS011;49654;51.142;14.924;2023-02-16T09:40:10;72.17;;;35.20;;
63499;SDS011;49654;51.142;14.924;2023-02-16T09:42:43;67.87;;;34.73;;
63499;SDS011;49654;51.142;14.924;2023-02-16T09:45:21;71.20;;;36.20;;
63499;SDS011;49654;51.142;14.924;2023-02-16T09:47:49;77.60;;;36.20;;
63499;SDS011;49654;51.142;14.924;2023-02-16T09:50:19;73.87;;;37.37;;
63499;SDS011;49654;51.142;14.924;2023-02-16T09:52:51;74.90;;;35.67;;
63499;SDS011;49654;51.142;14.924;2023-02-16T09:55:21;69.90;;;33.50;;
63499;SDS011;49654;51.142;14.924;2023-02-16T09:57:55;65.23;;;33.33;;
63499;SDS011;49654;51.142;14.924;2023-02-16T10:00:35;68.43;;;33.40;;
63499;SDS011;49654;51.142;14.924;2023-02-16T10:03:14;68.63;;;33.83;;
63499;SDS011;49654;51.142;14.924;2023-02-16T10:05:51;69.37;;;34.60;;
63499;SDS011;49654;51.142;14.924;2023-02-16T10:08:26;74.63;;;35.90;;
63499;SDS011;49654;51.142;14.924;2023-02-16T10:10:59;69.70;;;34.57;;
63499;SDS011;49654;51.142;14.924;2023-02-16T10:13:33;70.00;;;35.43;;
63499;SDS011;49654;51.142;14.924;2023-02-16T10:16:04;73.20;;;35.73;;
63499;SDS011;49654;51.142;14.924;2023-02-16T10:18:38;70.10;;;34.50;;
63499;SDS011;49654;51.142;14.924;2023-02-16T10:21:11;72.33;;;36.30;;
63499;SDS011;49654;51.142;14.924;2023-02-16T10:23:44;67.50;;;35.07;;
63499;SDS011;49654;51.142;14.924;2023-02-16T10:26:17;65.17;;;34.23;;
63499;SDS011;49654;51.142;14.924;2023-02-16T10:28:51;63.20;;;32.63;;
63499;SDS011;49654;51.142;14.924;2023-02-16T10:31:24;68.13;;;34.40;;
63499;SDS011;49654;51.142;14.924;2023-02-16T10:33:59;70.37;;;34.70;;
63499;SDS011;49654;51.142;14.924;2023-02-16T10:36:43;65.40;;;33.60;;
63499;SDS011;49654;51.142;14.924;2023-02-16T10:39:23;66.37;;;33.80;;
63499;SDS011;49654;51.142;14.924;2023-02-16T10:41:58;72.20;;;35.37;;
63499;SDS011;49654;51.142;14.924;2023-02-16T10:44:30;66.67;;;34.50;;
63499;SDS011;49654;51.142;14.924;2023-02-16T10:47:03;65.90;;;34.03;;
63499;SDS011;49654;51.142;14.924;2023-02-16T10:49:32;68.43;;;33.70;;
63499;SDS011;49654;51.142;14.924;2023-02-16T10:52:01;65.50;;;34.90;;
63499;SDS011;49654;51.142;14.924;2023-02-16T10:54:30;66.90;;;35.50;;
63499;SDS011;49654;51.142;14.924;2023-02-16T10:56:58;66.50;;;34.20;;
63499;SDS011;49654;51.142;14.924;2023-02-16T10:59:30;64.53;;;34.10;;
63499;SDS011;49654;51.142;14.924;2023-02-16T11:02:17;64.67;;;33.73;;
63499;SDS011;49654;51.142;14.924;2023-02-16T11:04:48;64.17;;;33.00;;
63499;SDS011;49654;51.142;14.924;2023-02-16T11:07:19;66.23;;;33.20;;
63499;SDS011;49654;51.142;14.924;2023-02-16T11:09:48;64.63;;;33.78;;
63499;SDS011;49654;51.142;14.924;2023-02-16T11:12:23;64.63;;;33.57;;
63499;SDS011;49654;51.142;14.924;2023-02-16T11:14:53;64.43;;;32.53;;
63499;SDS011;49654;51.142;14.924;2023-02-16T11:17:25;62.65;;;31.52;;
63499;SDS011;49654;51.142;14.924;2023-02-16T11:19:53;62.42;;;32.50;;
63499;SDS011;49654;51.142;14.924;2023-02-16T11:22:25;60.03;;;32.15;;
63499;SDS011;49654;51.142;14.924;2023-02-16T11:24:55;60.17;;;31.73;;
63499;SDS011;49654;51.142;14.924;2023-02-16T11:27:23;58.47;;;30.83;;
63499;SDS011;49654;51.142;14.924;2023-02-16T11:29:50;57.15;;;30.38;;
63499;SDS011;49654;51.142;14.924;2023-02-16T11:32:48;53.80;;;29.58;;
63499;SDS011;49654;51.142;14.924;2023-02-16T11:35:16;55.65;;;29.77;;
63499;SDS011;49654;51.142;14.924;2023-02-16T11:37:44;57.33;;;30.48;;
63499;SDS011;49654;51.142;14.924;2023-02-16T11:40:18;56.33;;;30.67;;
63499;SDS011;49654;51.142;14.924;2023-02-16T11:42:49;57.40;;;30.65;;
63499;SDS011;49654;51.142;14.924;2023-02-16T11:45:23;57.45;;;30.80;;
63499;SDS011;49654;51.142;14.924;2023-02-16T11:47:55;58.00;;;30.52;;
63499;SDS011;49654;51.142;14.924;2023-02-16T11:50:24;58.22;;;30.70;;
63499;SDS011;49654;51.142;14.924;2023-02-16T11:52:54;62.65;;;33.17;;
63499;SDS011;49654;51.142;14.924;2023-02-16T11:55:24;62.95;;;33.63;;
63499;SDS011;49654;51.142;14.924;2023-02-16T11:58:12;61.25;;;32.58;;
63499;SDS011;49654;51.142;14.924;2023-02-16T12:00:42;60.25;;;32.10;;
63499;SDS011;49654;51.142;14.924;2023-02-16T12:03:27;59.67;;;31.50;;
63499;SDS011;49654;51.142;14.924;2023-02-16T12:06:06;66.70;;;33.70;;
63499;SDS011;49654;51.142;14.924;2023-02-16T12:08:56;67.97;;;34.35;;
63499;SDS011;49654;51.142;14.924;2023-02-16T12:11:35;74.55;;;35.33;;
63499;SDS011;49654;51.142;14.924;2023-02-16T12:17:02;66.03;;;34.40;;
63499;SDS011;49654;51.142;14.924;2023-02-16T12:19:44;71.60;;;35.78;;
63499;SDS011;49654;51.142;14.924;2023-02-16T12:22:23;78.95;;;38.38;;
63499;SDS011;49654;51.142;14.924;2023-02-16T12:25:02;76.40;;;37.35;;
63499;SDS011;49654;51.142;14.924;2023-02-16T12:27:46;72.63;;;37.20;;
63499;SDS011;49654;51.142;14.924;2023-02-16T12:30:19;74.70;;;37.95;;
63499;SDS011;49654;51.142;14.924;2023-02-16T12:35:58;67.68;;;34.92;;
63499;SDS011;49654;51.142;14.924;2023-02-16T12:38:35;64.22;;;33.72;;
63499;SDS011;49654;51.142;14.924;2023-02-16T12:41:15;68.97;;;34.95;;
63499;SDS011;49654;51.142;14.924;2023-02-16T12:43:52;67.25;;;35.10;;
63499;SDS011;49654;51.142;14.924;2023-02-16T12:46:25;66.57;;;34.92;;
63499;SDS011;49654;51.142;14.924;2023-02-16T12:48:55;69.43;;;35.63;;
63499;SDS011;49654;51.142;14.924;2023-02-16T12:51:29;66.63;;;34.47;;
63499;SDS011;49654;51.142;14.924;2023-02-16T12:54:03;71.05;;;37.40;;
63499;SDS011;49654;51.142;14.924;2023-02-16T12:56:35;69.85;;;35.90;;
63499;SDS011;49654;51.142;14.924;2023-02-16T12:59:13;69.22;;;35.88;;
63499;SDS011;49654;51.142;14.924;2023-02-16T13:01:44;67.97;;;35.13;;
63499;SDS011;49654;51.142;14.924;2023-02-16T13:04:16;66.65;;;33.97;;
63499;SDS011;49654;51.142;14.924;2023-02-16T13:06:51;62.70;;;32.90;;
63499;SDS011;49654;51.142;14.924;2023-02-16T13:09:28;66.40;;;35.08;;
63499;SDS011;49654;51.142;14.924;2023-02-16T13:12:03;62.70;;;32.08;;
63499;SDS011;49654;51.142;14.924;2023-02-16T13:14:38;61.20;;;31.70;;
63499;SDS011;49654;51.142;14.924;2023-02-16T13:17:09;61.03;;;31.83;;
63499;SDS011;49654;51.142;14.924;2023-02-16T13:19:40;57.97;;;31.38;;
63499;SDS011;49654;51.142;14.924;2023-02-16T13:22:24;59.83;;;31.73;;
63499;SDS011;49654;51.142;14.924;2023-02-16T13:25:19;59.35;;;30.95;;
63499;SDS011;49654;51.142;14.924;2023-02-16T13:28:21;55.10;;;30.58;;
63499;SDS011;49654;51.142;14.924;2023-02-16T13:31:09;56.03;;;30.58;;
63499;SDS011;49654;51.142;14.924;2023-02-16T13:33:50;50.72;;;28.50;;
63499;SDS011;49654;51.142;14.924;2023-02-16T13:36:39;55.72;;;30.77;;
63499;SDS011;49654;51.142;14.924;2023-02-16T13:39:20;49.00;;;28.50;;
63499;SDS011;49654;51.142;14.924;2023-02-16T13:42:01;54.53;;;31.00;;
63499;SDS011;49654;51.142;14.924;2023-02-16T13:44:42;51.22;;;30.05;;
63499;SDS011;49654;51.142;14.924;2023-02-16T13:47:13;55.42;;;31.55;;
63499;SDS011;49654;51.142;14.924;2023-02-16T13:49:45;52.10;;;31.02;;
63499;SDS011;49654;51.142;14.924;2023-02-16T13:52:25;51.38;;;30.27;;
63499;SDS011;49654;51.142;14.924;2023-02-16T13:54:57;51.97;;;30.70;;
63499;SDS011;49654;51.142;14.924;2023-02-16T14:00:42;50.60;;;29.40;;
63499;SDS011;49654;51.142;14.924;2023-02-16T14:03:12;52.97;;;30.08;;
63499;SDS011;49654;51.142;14.924;2023-02-16T14:12:02;45.35;;;27.08;;
63499;SDS011;49654;51.142;14.924;2023-02-16T14:14:43;43.13;;;26.60;;
63499;SDS011;49654;51.142;14.924;2023-02-16T14:17:22;44.65;;;27.58;;
63499;SDS011;49654;51.142;14.924;2023-02-16T14:19:52;44.70;;;27.23;;
63499;SDS011;49654;51.142;14.924;2023-02-16T14:22:22;45.88;;;27.58;;
63499;SDS011;49654;51.142;14.924;2023-02-16T14:24:54;46.00;;;28.20;;
63499;SDS011;49654;51.142;14.924;2023-02-16T14:27:41;46.10;;;28.25;;
63499;SDS011;49654;51.142;14.924;2023-02-16T14:30:15;44.75;;;27.98;;
63499;SDS011;49654;51.142;14.924;2023-02-16T14:32:48;43.00;;;27.15;;
63499;SDS011;49654;51.142;14.924;2023-02-16T14:35:21;42.28;;;27.08;;
63499;SDS011;49654;51.142;14.924;2023-02-16T14:37:53;41.30;;;26.23;;
63499;SDS011;49654;51.142;14.924;2023-02-16T14:40:37;43.25;;;27.10;;
63499;SDS011;49654;51.142;14.924;2023-02-16T14:43:12;41.10;;;26.55;;
63499;SDS011;49654;51.142;14.924;2023-02-16T14:49:12;41.83;;;26.02;;
63499;SDS011;49654;51.142;14.924;2023-02-16T14:51:53;42.33;;;27.02;;
63499;SDS011;49654;51.142;14.924;2023-02-16T14:54:41;43.03;;;26.58;;
63499;SDS011;49654;51.142;14.924;2023-02-16T14:57:29;44.38;;;27.02;;